createdAt,value
2018-08-31T00:02:23.670Z,15.20
2018-08-31T00:06:00.694Z,15.20
2018-08-31T00:08:38.122Z,15.20
2018-08-31T00:12:45.481Z,15.10
2018-08-31T00:15:13.566Z,15.10
2018-08-31T00:17:42.854Z,15.00
2018-08-31T00:20:11.928Z,15.00
2018-08-31T00:22:40.053Z,15.00
2018-08-31T00:25:20.293Z,15.00
2018-08-31T00:27:59.741Z,14.90
2018-08-31T00:30:39.444Z,14.90
2018-08-31T00:33:19.002Z,14.90
2018-08-31T00:39:02.687Z,14.80
2018-08-31T00:43:51.568Z,14.90
2018-08-31T00:46:19.646Z,14.80
2018-08-31T00:48:47.762Z,14.80
2018-08-31T00:51:15.785Z,14.80
2018-08-31T00:53:43.870Z,14.70
2018-08-31T00:56:12.009Z,14.70
2018-08-31T00:58:40.202Z,14.60
2018-08-31T01:01:08.278Z,14.50
2018-08-31T01:03:36.402Z,14.50
2018-08-31T01:06:04.503Z,14.50
2018-08-31T01:08:32.623Z,14.40
2018-08-31T01:11:00.695Z,14.30
2018-08-31T01:13:28.778Z,14.30
2018-08-31T01:15:56.840Z,14.30
2018-08-31T01:18:24.963Z,14.30
2018-08-31T01:20:53.081Z,14.20
2018-08-31T01:23:21.183Z,14.20
2018-08-31T01:25:49.250Z,14.20
2018-08-31T01:28:17.320Z,14.20
2018-08-31T01:30:45.498Z,14.10
2018-08-31T01:33:13.632Z,14.10
2018-08-31T01:35:41.713Z,14.00
2018-08-31T01:38:09.824Z,14.00
2018-08-31T01:40:37.956Z,14.00
2018-08-31T01:43:06.082Z,14.00
2018-08-31T01:45:34.167Z,14.00
2018-08-31T01:48:02.511Z,14.00
2018-08-31T01:50:30.630Z,13.90
2018-08-31T01:52:58.704Z,13.90
2018-08-31T01:55:31.370Z,13.90
2018-08-31T01:58:00.193Z,13.80
2018-08-31T02:00:28.573Z,13.70
2018-08-31T02:02:56.641Z,13.70
2018-08-31T02:05:24.779Z,13.70
2018-08-31T02:07:52.890Z,13.60
2018-08-31T02:10:20.970Z,13.60
2018-08-31T02:12:49.074Z,13.60
2018-08-31T02:15:17.202Z,13.50
2018-08-31T02:17:45.287Z,13.50
2018-08-31T02:20:13.371Z,13.50
2018-08-31T02:22:41.469Z,13.50
2018-08-31T02:25:09.524Z,13.50
2018-08-31T02:27:37.601Z,13.40
2018-08-31T02:30:05.935Z,13.40
2018-08-31T02:32:34.022Z,13.40
2018-08-31T02:35:02.143Z,13.30
2018-08-31T02:37:30.234Z,13.30
2018-08-31T02:39:58.312Z,13.30
2018-08-31T02:42:26.442Z,13.20
2018-08-31T02:44:54.499Z,13.20
2018-08-31T02:47:22.626Z,13.20
2018-08-31T02:49:50.706Z,13.20
2018-08-31T02:52:18.858Z,13.30
2018-08-31T02:54:46.934Z,13.20
2018-08-31T02:57:15.001Z,13.20
2018-08-31T02:59:43.050Z,13.10
2018-08-31T03:02:11.175Z,13.20
2018-08-31T03:04:39.279Z,13.10
2018-08-31T03:07:07.367Z,13.60
2018-08-31T03:09:35.453Z,13.10
2018-08-31T03:12:03.512Z,13.20
2018-08-31T03:14:31.638Z,13.10
2018-08-31T03:16:59.757Z,13.10
2018-08-31T03:19:27.848Z,13.10
2018-08-31T03:21:55.900Z,13.10
2018-08-31T03:24:23.951Z,13.10
2018-08-31T03:26:52.116Z,13.10
2018-08-31T03:29:20.177Z,13.10
2018-08-31T03:31:48.268Z,13.20
2018-08-31T03:34:16.340Z,13.10
2018-08-31T03:36:44.448Z,13.10
2018-08-31T03:39:12.661Z,13.20
2018-08-31T03:41:40.770Z,13.10
2018-08-31T03:44:08.875Z,13.00
2018-08-31T03:46:36.952Z,13.00
2018-08-31T03:49:05.354Z,13.00
2018-08-31T03:51:33.439Z,13.00
2018-08-31T03:54:01.560Z,13.00
2018-08-31T03:56:29.622Z,13.00
2018-08-31T03:58:57.715Z,13.10
2018-08-31T04:01:25.831Z,13.10
2018-08-31T04:03:53.967Z,13.10
2018-08-31T04:06:22.258Z,13.10
2018-08-31T04:08:50.320Z,13.10
2018-08-31T04:11:18.406Z,13.10
2018-08-31T04:13:46.498Z,13.00
2018-08-31T04:16:14.626Z,12.90
2018-08-31T04:18:42.727Z,13.00
2018-08-31T04:21:10.818Z,13.00
2018-08-31T04:23:38.877Z,13.00
2018-08-31T04:26:06.955Z,12.90
2018-08-31T04:28:35.029Z,12.90
2018-08-31T04:31:03.098Z,12.90
2018-08-31T04:33:31.170Z,12.80
2018-08-31T04:35:59.267Z,12.80
2018-08-31T04:38:27.381Z,12.80
2018-08-31T04:40:55.439Z,12.80
2018-08-31T04:43:23.566Z,12.80
2018-08-31T04:45:51.669Z,12.80
2018-08-31T04:48:19.745Z,12.80
2018-08-31T04:50:47.839Z,12.90
2018-08-31T04:53:15.994Z,12.90
2018-08-31T04:55:44.038Z,12.90
2018-08-31T04:58:12.077Z,12.90
2018-08-31T05:00:40.144Z,12.80
2018-08-31T05:03:08.200Z,12.90
2018-08-31T05:05:36.238Z,12.90
2018-08-31T05:08:04.311Z,12.90
2018-08-31T05:10:32.358Z,13.00
2018-08-31T05:13:00.717Z,13.00
2018-08-31T05:15:28.803Z,13.00
2018-08-31T05:17:56.894Z,13.10
2018-08-31T05:20:24.981Z,13.00
2018-08-31T05:22:53.046Z,13.00
2018-08-31T05:25:21.124Z,13.10
2018-08-31T05:27:49.162Z,13.20
2018-08-31T05:30:17.238Z,13.30
2018-08-31T05:32:45.300Z,13.30
2018-08-31T05:35:13.435Z,13.30
2018-08-31T05:37:41.477Z,13.40
2018-08-31T05:40:09.559Z,13.50
2018-08-31T05:42:37.673Z,13.40
2018-08-31T05:45:05.775Z,13.50
2018-08-31T05:47:33.823Z,13.50
2018-08-31T05:50:01.889Z,13.50
2018-08-31T05:52:29.975Z,13.50
2018-08-31T05:54:58.193Z,13.60
2018-08-31T05:57:26.399Z,13.50
2018-08-31T05:59:54.511Z,13.50
2018-08-31T06:02:22.600Z,13.60
2018-08-31T06:04:50.688Z,13.60
2018-08-31T06:07:18.755Z,13.70
2018-08-31T06:09:46.929Z,13.80
2018-08-31T06:12:14.990Z,13.90
2018-08-31T06:14:43.170Z,13.80
2018-08-31T06:17:11.266Z,13.80
2018-08-31T06:19:39.379Z,13.90
2018-08-31T06:22:07.426Z,14.00
2018-08-31T06:24:35.677Z,14.20
2018-08-31T06:27:03.763Z,14.10
2018-08-31T06:29:31.873Z,14.30
2018-08-31T06:32:00.032Z,14.10
2018-08-31T06:34:28.386Z,14.30
2018-08-31T06:36:56.581Z,14.20
2018-08-31T06:39:24.687Z,14.20
2018-08-31T06:41:52.794Z,14.00
2018-08-31T06:44:20.882Z,14.10
2018-08-31T06:46:48.974Z,14.10
2018-08-31T06:49:17.037Z,14.10
2018-08-31T06:51:45.242Z,14.10
2018-08-31T06:54:13.331Z,14.20
2018-08-31T06:56:41.369Z,14.60
2018-08-31T06:59:09.532Z,14.70
2018-08-31T07:01:37.591Z,14.70
2018-08-31T07:04:05.734Z,14.60
2018-08-31T07:06:33.834Z,14.60
2018-08-31T07:09:01.934Z,14.60
2018-08-31T07:11:30.018Z,14.70
2018-08-31T07:13:58.106Z,14.70
2018-08-31T07:16:26.199Z,14.70
2018-08-31T07:18:54.392Z,14.60
2018-08-31T07:21:22.494Z,14.60
2018-08-31T07:23:50.563Z,14.60
2018-08-31T07:26:18.643Z,14.60
2018-08-31T07:28:46.738Z,14.60
2018-08-31T07:31:14.874Z,14.50
2018-08-31T07:33:42.999Z,14.50
2018-08-31T07:36:11.110Z,14.50
2018-08-31T07:38:39.196Z,14.70
2018-08-31T07:41:07.317Z,14.70
2018-08-31T07:43:35.368Z,14.60
2018-08-31T07:46:03.504Z,14.50
2018-08-31T07:48:31.624Z,14.50
2018-08-31T07:50:59.698Z,14.50
2018-08-31T07:53:27.874Z,14.50
2018-08-31T07:55:56.544Z,14.50
2018-08-31T07:58:24.636Z,14.60
2018-08-31T08:00:52.737Z,14.60
2018-08-31T08:03:20.783Z,14.60
2018-08-31T08:05:48.922Z,14.60
2018-08-31T08:08:16.991Z,14.70
2018-08-31T08:10:45.173Z,14.60
2018-08-31T08:13:13.246Z,14.80
2018-08-31T08:15:41.391Z,14.70
2018-08-31T08:18:09.476Z,14.60
2018-08-31T08:20:37.673Z,14.70
2018-08-31T08:23:05.816Z,14.70
2018-08-31T08:25:33.958Z,14.70
2018-08-31T08:28:02.081Z,14.60
2018-08-31T08:30:30.267Z,14.60
2018-08-31T08:32:58.453Z,14.60
2018-08-31T08:35:26.590Z,14.70
2018-08-31T08:37:54.679Z,14.90
2018-08-31T08:40:22.796Z,15.00
2018-08-31T08:42:50.869Z,15.10
2018-08-31T08:45:18.947Z,15.40
2018-08-31T08:47:47.858Z,15.60
2018-08-31T08:50:15.944Z,15.50
2018-08-31T08:52:44.062Z,15.40
2018-08-31T08:55:12.172Z,15.60
2018-08-31T08:57:40.301Z,15.80
2018-08-31T09:00:08.389Z,15.80
2018-08-31T09:02:36.537Z,15.70
2018-08-31T09:05:04.783Z,15.80
2018-08-31T09:07:32.858Z,16.00
2018-08-31T09:10:00.924Z,16.00
2018-08-31T09:12:29.111Z,16.20
2018-08-31T09:14:57.135Z,16.20
2018-08-31T09:17:25.271Z,16.30
2018-08-31T09:19:53.341Z,16.40
2018-08-31T09:22:21.426Z,16.40
2018-08-31T09:24:49.487Z,16.50
2018-08-31T09:27:17.558Z,16.50
2018-08-31T09:29:45.590Z,16.50
2018-08-31T09:32:19.175Z,16.40
2018-08-31T09:34:53.063Z,16.50
2018-08-31T09:37:21.151Z,16.50
2018-08-31T09:39:49.618Z,16.70
2018-08-31T09:42:17.944Z,17.00
2018-08-31T09:44:46.082Z,17.30
2018-08-31T09:47:14.547Z,17.30
2018-08-31T09:49:43.408Z,17.60
2018-08-31T09:52:11.625Z,17.90
2018-08-31T09:54:39.794Z,18.10
2018-08-31T09:57:08.021Z,18.40
2018-08-31T09:59:36.154Z,18.50
2018-08-31T10:02:05.650Z,18.60
2018-08-31T10:04:33.790Z,18.70
2018-08-31T10:07:01.882Z,19.00
2018-08-31T10:09:30.038Z,18.90
2018-08-31T10:11:58.159Z,18.90
2018-08-31T10:14:26.340Z,18.80
2018-08-31T10:16:54.458Z,18.80
2018-08-31T10:19:22.534Z,18.40
2018-08-31T10:21:50.646Z,18.40
2018-08-31T10:24:18.756Z,18.40
2018-08-31T10:26:46.818Z,18.60
2018-08-31T10:29:14.868Z,18.80
2018-08-31T10:31:42.958Z,18.90
2018-08-31T10:34:11.131Z,19.00
2018-08-31T10:36:39.228Z,19.10
2018-08-31T10:39:10.238Z,19.00
2018-08-31T10:41:38.363Z,19.00
2018-08-31T10:44:06.580Z,18.90
2018-08-31T10:46:34.966Z,19.10
2018-08-31T10:49:03.172Z,19.30
2018-08-31T10:51:31.300Z,19.40
2018-08-31T10:53:59.386Z,19.60
2018-08-31T10:56:27.555Z,19.80
2018-08-31T10:58:55.758Z,20.10
2018-08-31T11:01:23.847Z,20.00
2018-08-31T11:03:51.937Z,20.10
2018-08-31T11:06:20.006Z,20.00
2018-08-31T11:08:48.104Z,20.00
2018-08-31T11:11:16.216Z,20.10
2018-08-31T11:13:44.320Z,20.30
2018-08-31T11:16:12.394Z,20.40
2018-08-31T11:18:40.498Z,20.80
2018-08-31T11:21:08.608Z,20.90
2018-08-31T11:23:36.733Z,20.80
2018-08-31T11:26:04.809Z,20.70
2018-08-31T11:28:32.876Z,20.60
2018-08-31T11:31:00.948Z,20.60
2018-08-31T11:33:29.046Z,20.60
2018-08-31T11:35:57.117Z,20.20
2018-08-31T11:38:25.188Z,20.40
2018-08-31T11:40:53.279Z,20.40
2018-08-31T11:43:21.408Z,20.60
2018-08-31T11:45:49.480Z,20.60
2018-08-31T11:48:17.553Z,20.40
2018-08-31T11:50:45.598Z,20.30
2018-08-31T11:53:13.714Z,20.20
2018-08-31T11:55:41.830Z,20.30
2018-08-31T11:58:09.912Z,20.30
2018-08-31T12:00:38.069Z,20.50
2018-08-31T12:03:06.215Z,20.50
2018-08-31T12:05:34.434Z,20.20
2018-08-31T12:08:02.520Z,20.00
2018-08-31T12:10:30.637Z,20.00
2018-08-31T12:12:58.727Z,20.00
2018-08-31T12:15:27.539Z,20.30
2018-08-31T12:17:55.635Z,20.40
2018-08-31T12:20:23.759Z,20.30
2018-08-31T12:22:51.902Z,20.40
2018-08-31T12:25:20.005Z,20.70
2018-08-31T12:27:48.107Z,20.70
2018-08-31T12:30:16.332Z,20.70
2018-08-31T12:32:44.417Z,20.60
2018-08-31T12:35:12.487Z,20.60
2018-08-31T12:37:40.549Z,20.50
2018-08-31T12:40:08.801Z,20.30
2018-08-31T12:42:36.958Z,20.10
2018-08-31T12:45:05.280Z,19.90
2018-08-31T12:47:33.354Z,20.10
2018-08-31T12:50:01.432Z,20.10
2018-08-31T12:52:29.596Z,20.10
2018-08-31T12:54:57.663Z,20.30
2018-08-31T12:57:25.737Z,20.30
2018-08-31T12:59:59.380Z,20.40
2018-08-31T13:02:28.298Z,20.60
2018-08-31T13:04:56.397Z,20.90
2018-08-31T13:07:24.451Z,20.90
2018-08-31T13:09:52.689Z,21.00
2018-08-31T13:12:20.872Z,21.30
2018-08-31T13:14:49.112Z,21.60
2018-08-31T13:17:17.196Z,21.50
2018-08-31T13:19:45.382Z,21.60
2018-08-31T13:22:13.533Z,21.50
2018-08-31T13:24:41.619Z,21.10
2018-08-31T13:27:09.814Z,21.00
2018-08-31T13:29:37.950Z,20.90
2018-08-31T13:32:06.075Z,21.00
2018-08-31T13:34:34.127Z,20.90
2018-08-31T13:37:02.270Z,21.10
2018-08-31T13:39:30.346Z,21.30
2018-08-31T13:41:58.402Z,21.30
2018-08-31T13:44:26.472Z,21.50
2018-08-31T13:46:54.524Z,21.50
2018-08-31T13:49:23.020Z,21.70
2018-08-31T13:51:51.270Z,21.80
2018-08-31T13:54:19.478Z,21.70
2018-08-31T13:56:47.543Z,21.70
2018-08-31T13:59:15.610Z,21.70
2018-08-31T14:01:43.716Z,21.90
2018-08-31T14:04:11.801Z,21.70
2018-08-31T14:06:39.926Z,21.60
2018-08-31T14:09:08.057Z,21.60
2018-08-31T14:11:36.521Z,21.70
2018-08-31T14:14:04.577Z,21.80
2018-08-31T14:16:35.196Z,22.00
2018-08-31T14:19:04.863Z,22.10
2018-08-31T14:21:33.014Z,22.20
2018-08-31T14:24:01.112Z,22.20
2018-08-31T14:26:29.222Z,22.20
2018-08-31T14:28:57.306Z,22.10
2018-08-31T14:31:25.485Z,22.00
2018-08-31T14:33:53.777Z,21.90
2018-08-31T14:36:21.901Z,21.70
2018-08-31T14:38:50.058Z,21.50
2018-08-31T14:41:18.208Z,21.30
2018-08-31T14:43:46.257Z,21.20
2018-08-31T14:46:14.342Z,21.20
2018-08-31T14:48:42.440Z,21.00
2018-08-31T14:51:10.531Z,20.90
2018-08-31T14:53:38.607Z,20.70
2018-08-31T14:56:06.702Z,20.70
2018-08-31T14:58:34.827Z,20.70
2018-08-31T15:01:02.865Z,20.60
2018-08-31T15:03:31.012Z,20.40
2018-08-31T15:05:59.262Z,20.20
2018-08-31T15:08:27.208Z,20.30
2018-08-31T15:10:55.322Z,20.30
2018-08-31T15:13:23.751Z,20.40
2018-08-31T15:15:51.906Z,20.50
2018-08-31T15:18:20.003Z,20.60
2018-08-31T15:20:48.164Z,20.60
2018-08-31T15:23:16.255Z,20.70
2018-08-31T15:25:44.346Z,20.70
2018-08-31T15:28:12.491Z,20.70
2018-08-31T15:30:41.484Z,20.50
2018-08-31T15:33:09.555Z,20.50
2018-08-31T15:35:37.644Z,20.50
2018-08-31T15:38:05.732Z,20.40
2018-08-31T15:40:33.923Z,20.30
2018-08-31T15:43:02.766Z,20.30
2018-08-31T15:45:31.178Z,20.30
2018-08-31T15:47:59.238Z,20.30
2018-08-31T15:50:27.542Z,20.20
2018-08-31T15:52:55.622Z,20.20
2018-08-31T15:55:23.721Z,20.20
2018-08-31T15:57:51.823Z,20.20
2018-08-31T16:00:19.943Z,20.10
2018-08-31T16:02:48.016Z,20.00
2018-08-31T16:05:16.108Z,19.90
2018-08-31T16:07:44.229Z,19.90
2018-08-31T16:10:12.284Z,19.80
2018-08-31T16:12:40.337Z,19.90
2018-08-31T16:15:08.416Z,19.90
2018-08-31T16:17:36.459Z,20.00
2018-08-31T16:20:04.715Z,20.00
2018-08-31T16:22:32.786Z,20.10
2018-08-31T16:25:00.896Z,20.00
2018-08-31T16:27:28.962Z,20.00
2018-08-31T16:29:57.072Z,20.00
2018-08-31T16:32:25.245Z,20.00
2018-08-31T16:34:53.347Z,20.00
2018-08-31T16:37:21.438Z,19.90
2018-08-31T16:39:49.548Z,19.90
2018-08-31T16:42:17.645Z,19.90
2018-08-31T16:44:45.723Z,19.90
2018-08-31T16:47:13.830Z,19.80
2018-08-31T16:49:41.962Z,19.80
2018-08-31T16:52:10.064Z,19.80
2018-08-31T16:54:38.267Z,19.80
2018-08-31T16:57:06.512Z,19.80
2018-08-31T16:59:34.991Z,19.80
2018-08-31T17:02:03.189Z,19.80
2018-08-31T17:04:31.254Z,19.80
2018-08-31T17:06:59.347Z,19.90
2018-08-31T17:09:27.426Z,19.80
2018-08-31T17:11:55.522Z,19.90
2018-08-31T17:14:23.550Z,19.80
2018-08-31T17:16:51.681Z,19.70
2018-08-31T17:19:19.746Z,19.60
2018-08-31T17:21:47.871Z,19.60
2018-08-31T17:24:15.979Z,19.50
2018-08-31T17:26:49.537Z,19.50
2018-08-31T17:29:23.134Z,19.40
2018-08-31T17:31:56.633Z,19.40
2018-08-31T17:34:30.041Z,19.30
2018-08-31T17:37:03.498Z,19.30
2018-08-31T17:39:31.613Z,19.20
2018-08-31T17:41:59.691Z,19.20
2018-08-31T17:44:27.710Z,19.10
2018-08-31T17:46:55.824Z,19.00
2018-08-31T17:49:24.290Z,19.00
2018-08-31T17:51:52.430Z,18.90
2018-08-31T17:54:20.486Z,18.80
2018-08-31T17:56:48.550Z,18.70
2018-08-31T17:59:16.627Z,18.60
2018-08-31T18:01:44.792Z,18.60
2018-08-31T18:04:12.937Z,18.50
2018-08-31T18:06:41.096Z,18.40
2018-08-31T18:09:09.217Z,18.30
2018-08-31T18:11:37.490Z,18.20
2018-08-31T18:14:05.740Z,18.20
2018-08-31T18:16:33.904Z,18.20
2018-08-31T18:19:01.999Z,18.20
2018-08-31T18:21:30.071Z,18.20
2018-08-31T18:23:58.305Z,18.10
2018-08-31T18:26:26.383Z,18.10
2018-08-31T18:28:54.462Z,18.10
2018-08-31T18:31:22.546Z,18.10
2018-08-31T18:33:50.640Z,18.10
2018-08-31T18:36:18.762Z,18.20
2018-08-31T18:38:46.881Z,18.10
2018-08-31T18:41:14.939Z,18.10
2018-08-31T18:43:43.145Z,18.10
2018-08-31T18:46:11.253Z,18.20
2018-08-31T18:48:39.460Z,18.10
2018-08-31T18:51:07.525Z,18.10
2018-08-31T18:53:35.600Z,18.00
2018-08-31T18:56:03.668Z,17.90
2018-08-31T18:58:31.747Z,17.90
2018-08-31T19:00:59.790Z,17.80
2018-08-31T19:03:27.899Z,17.80
2018-08-31T19:05:55.933Z,18.50
2018-08-31T19:08:24.048Z,17.70
2018-08-31T19:10:52.238Z,17.60
2018-08-31T19:13:20.360Z,17.60
2018-08-31T19:15:48.419Z,17.40
2018-08-31T19:18:16.481Z,17.30
2018-08-31T19:20:44.560Z,17.20
2018-08-31T19:23:12.637Z,17.30
2018-08-31T19:25:40.706Z,17.30
2018-08-31T19:28:08.789Z,17.20
2018-08-31T19:30:36.909Z,17.20
2018-08-31T19:33:04.968Z,17.20
2018-08-31T19:35:33.078Z,17.20
2018-08-31T19:38:01.162Z,17.20
2018-08-31T19:40:29.294Z,17.20
2018-08-31T19:42:57.379Z,17.20
2018-08-31T19:45:25.434Z,17.20
2018-08-31T19:47:53.525Z,17.10
2018-08-31T19:50:21.613Z,17.00
2018-08-31T19:52:49.809Z,17.00
2018-08-31T19:55:17.896Z,16.90
2018-08-31T19:57:46.080Z,16.90
2018-08-31T20:00:20.786Z,16.80
2018-08-31T20:02:48.916Z,16.80
2018-08-31T20:05:17.027Z,16.80
2018-08-31T20:07:45.135Z,16.80
2018-08-31T20:10:13.194Z,16.80
2018-08-31T20:12:41.299Z,16.80
2018-08-31T20:15:09.363Z,16.80
2018-08-31T20:17:37.445Z,16.80
2018-08-31T20:20:05.773Z,16.70
2018-08-31T20:22:33.842Z,16.70
2018-08-31T20:25:01.915Z,16.60
2018-08-31T20:27:30.014Z,16.60
2018-08-31T20:29:58.121Z,16.60
2018-08-31T20:32:26.210Z,16.60
2018-08-31T20:34:54.385Z,16.60
2018-08-31T20:37:22.442Z,16.50
2018-08-31T20:39:50.489Z,16.50
2018-08-31T20:42:18.566Z,16.40
2018-08-31T20:44:46.643Z,16.30
2018-08-31T20:47:14.834Z,16.30
2018-08-31T20:49:44.090Z,16.20
2018-08-31T20:52:12.198Z,16.20
2018-08-31T20:54:40.275Z,16.20
2018-08-31T20:57:08.921Z,16.10
2018-08-31T20:59:37.219Z,16.10
2018-08-31T21:02:05.767Z,16.00
2018-08-31T21:04:33.879Z,16.00
2018-08-31T21:07:01.944Z,16.00
2018-08-31T21:09:30.153Z,15.90
2018-08-31T21:11:58.244Z,15.90
2018-08-31T21:14:26.327Z,15.90
2018-08-31T21:16:54.402Z,15.90
2018-08-31T21:19:22.478Z,15.80
2018-08-31T21:21:50.531Z,15.80
2018-08-31T21:24:18.650Z,15.70
2018-08-31T21:26:46.730Z,15.70
2018-08-31T21:29:14.775Z,15.60
2018-08-31T21:31:42.863Z,15.60
2018-08-31T21:34:11.030Z,15.60
2018-08-31T21:36:39.156Z,15.50
2018-08-31T21:39:07.602Z,15.50
2018-08-31T21:41:35.653Z,15.50
2018-08-31T21:44:03.750Z,15.50
2018-08-31T21:46:31.798Z,15.50
2018-08-31T21:49:00.013Z,15.50
2018-08-31T21:51:28.073Z,15.50
2018-08-31T21:53:56.135Z,15.50
2018-08-31T21:56:24.181Z,15.50
2018-08-31T21:58:52.259Z,15.50
2018-08-31T22:01:25.773Z,15.50
2018-08-31T22:03:53.816Z,15.50
2018-08-31T22:06:21.874Z,15.60
2018-08-31T22:08:50.004Z,15.60
2018-08-31T22:11:18.076Z,15.60
2018-08-31T22:13:46.188Z,15.60
2018-08-31T22:16:14.273Z,15.60
2018-08-31T22:18:42.368Z,15.70
2018-08-31T22:21:10.443Z,15.80
2018-08-31T22:23:38.536Z,15.80
2018-08-31T22:26:06.614Z,15.80
2018-08-31T22:28:34.717Z,15.80
2018-08-31T22:31:02.791Z,15.80
2018-08-31T22:33:30.904Z,15.80
2018-08-31T22:35:58.982Z,15.90
2018-08-31T22:38:27.044Z,16.00
2018-08-31T22:40:55.136Z,16.00
2018-08-31T22:43:28.593Z,16.00
2018-08-31T22:45:56.674Z,15.90
2018-08-31T22:48:24.772Z,15.90
2018-08-31T22:50:52.867Z,15.80
2018-08-31T22:53:20.939Z,15.90
2018-08-31T22:55:48.999Z,15.80
2018-08-31T22:58:17.063Z,15.80
2018-08-31T23:00:45.171Z,15.70
2018-08-31T23:03:13.234Z,15.60
2018-08-31T23:05:41.357Z,15.70
2018-08-31T23:08:09.452Z,15.70
2018-08-31T23:10:37.538Z,15.70
2018-08-31T23:13:05.630Z,15.60
2018-08-31T23:15:33.669Z,15.50
2018-08-31T23:18:01.705Z,15.40
2018-08-31T23:20:29.795Z,15.30
2018-08-31T23:23:03.364Z,15.30
2018-08-31T23:25:36.901Z,15.30
2018-08-31T23:28:05.085Z,17.00
2018-08-31T23:30:33.142Z,15.30
2018-08-31T23:33:01.201Z,15.30
2018-08-31T23:35:29.333Z,15.20
2018-08-31T23:37:57.376Z,15.20
2018-08-31T23:40:25.591Z,15.20
2018-08-31T23:42:53.633Z,15.20
2018-08-31T23:45:21.694Z,15.20
2018-08-31T23:47:50.843Z,15.10
2018-08-31T23:50:18.923Z,15.10
2018-08-31T23:52:46.942Z,15.10
2018-08-31T23:55:15.049Z,15.20
2018-08-31T23:57:43.127Z,15.20
